Time;durP1;ratioP1;P1;durP2;ratioP2;P2;SDS_P1;SDS_P2;PMS_P1;PMS_P2;Temp;Humidity;BMP_temperature;BMP_pressure;BME280_temperature;BME280_humidity;BME280_pressure;Samples;Min_cycle;Max_cycle;Signal;HPM_P1;HPM_P2
2023/10/16 00:02:22;;;;;;;4.35;2.08;;;;;;;14.03;45.59;102168.31;4935635;29;20488;-57
2023/10/16 00:04:49;;;;;;;4.80;1.67;;;;;;;13.98;45.49;102170.50;4934443;29;20059;-57
2023/10/16 00:07:27;;;;;;;2.90;1.55;;;;;;;13.97;45.65;102168.78;4918478;29;20526;-57
2023/10/16 00:09:55;;;;;;;2.20;1.67;;;;;;;13.94;45.63;102174.41;4920009;29;20046;-58
2023/10/16 00:12:21;;;;;;;5.57;1.58;;;;;;;13.87;45.38;102173.16;4919160;29;20102;-57
2023/10/16 00:14:46;;;;;;;6.75;2.10;;;;;;;13.87;46.54;102175.84;4932881;29;20036;-57
2023/10/16 00:17:15;;;;;;;4.03;1.98;;;;;;;13.86;46.42;102177.69;4918139;29;20042;-58
2023/10/16 00:19:44;;;;;;;3.78;2.00;;;;;;;13.84;46.65;102170.69;4918398;29;20090;-58
2023/10/16 00:22:15;;;;;;;3.63;2.10;;;;;;;13.81;46.34;102168.25;4918855;29;20047;-58
2023/10/16 00:24:45;;;;;;;4.97;2.17;;;;;;;13.80;45.32;102169.22;4900692;29;20041;-58
2023/10/16 00:27:14;;;;;;;2.08;1.70;;;;;;;13.76;46.80;102170.44;4919023;29;20040;-57
2023/10/16 00:29:41;;;;;;;3.72;1.38;;;;;;;13.75;45.07;102174.09;4910666;29;20061;-59
2023/10/16 00:32:07;;;;;;;4.40;1.70;;;;;;;13.71;46.30;102169.91;4938037;29;20028;-58
2023/10/16 00:34:33;;;;;;;5.28;1.65;;;;;;;13.65;46.49;102173.09;4921878;29;20546;-58
2023/10/16 00:37:01;;;;;;;1.50;1.40;;;;;;;13.65;46.29;102183.84;4938916;29;20116;-58
2023/10/16 00:39:28;;;;;;;1.65;1.40;;;;;;;13.62;46.28;102178.69;4921782;29;20046;-57
2023/10/16 00:41:57;;;;;;;3.78;1.90;;;;;;;13.54;46.37;102171.16;4921724;29;20070;-58
2023/10/16 00:44:33;;;;;;;2.53;1.33;;;;;;;13.54;45.31;102181.09;4937866;29;20032;-57
2023/10/16 00:47:00;;;;;;;2.88;1.10;;;;;;;13.51;45.53;102175.94;4922867;29;20494;-57
2023/10/16 00:49:26;;;;;;;1.25;1.15;;;;;;;13.45;45.37;102165.63;4906215;29;20042;-58
2023/10/16 00:51:51;;;;;;;1.70;1.40;;;;;;;13.45;46.24;102171.88;4921753;29;20024;-57
2023/10/16 00:54:28;;;;;;;4.90;1.48;;;;;;;13.43;45.68;102172.97;4921934;29;20035;-58
2023/10/16 00:56:57;;;;;;;2.55;1.45;;;;;;;13.39;46.43;102173.22;4938693;29;20521;-57
2023/10/16 00:59:23;;;;;;;1.45;1.30;;;;;;;13.37;45.38;102172.44;4937457;29;20119;-58
2023/10/16 01:01:52;;;;;;;3.88;1.85;;;;;;;13.36;45.95;102165.34;4921465;29;20035;-58
2023/10/16 01:04:19;;;;;;;3.97;1.70;;;;;;;13.34;45.30;102172.66;4921664;29;20087;-57
2023/10/16 01:06:48;;;;;;;3.47;1.98;;;;;;;13.31;45.26;102172.91;4938354;29;20040;-57
2023/10/16 01:09:24;;;;;;;4.10;1.48;;;;;;;13.31;46.35;102170.22;4921197;29;20032;-58
2023/10/16 01:11:50;;;;;;;2.15;1.65;;;;;;;13.28;45.90;102164.22;4921659;29;20518;-57
2023/10/16 01:14:17;;;;;;;4.72;1.60;;;;;;;13.27;46.45;102168.72;4920106;29;20036;-58
2023/10/16 01:16:43;;;;;;;1.63;1.52;;;;;;;13.26;45.26;102161.59;4921220;29;20057;-57
2023/10/16 01:19:09;;;;;;;4.60;1.75;;;;;;;13.24;46.33;102151.94;4920534;29;20047;-57
2023/10/16 01:21:35;;;;;;;3.90;2.17;;;;;;;13.22;46.24;102149.38;4938245;29;20415;-57
2023/10/16 01:24:03;;;;;;;3.30;1.88;;;;;;;13.21;45.97;102154.84;4905280;29;20551;-57
2023/10/16 01:26:29;;;;;;;2.83;1.52;;;;;;;13.18;46.75;102150.56;4921623;29;20039;-57
2023/10/16 01:28:55;;;;;;;2.28;1.90;;;;;;;13.18;45.74;102153.25;4936051;29;20118;-57
2023/10/16 01:31:21;;;;;;;1.88;1.48;;;;;;;13.18;46.39;102153.25;4905459;29;20042;-64
2023/10/16 01:33:49;;;;;;;6.10;2.60;;;;;;;13.16;45.78;102147.13;4921188;29;20031;-64
2023/10/16 01:36:14;;;;;;;5.70;2.17;;;;;;;13.12;45.94;102137.56;4921198;29;20458;-64
2023/10/16 01:38:40;;;;;;;3.22;1.88;;;;;;;13.19;46.73;102154.97;4936762;29;20138;-64
2023/10/16 01:41:06;;;;;;;3.15;2.22;;;;;;;13.17;45.93;102151.56;4921138;29;20562;-64
2023/10/16 01:43:33;;;;;;;2.42;1.95;;;;;;;13.18;45.66;102150.56;4920795;29;20059;-64
2023/10/16 01:46:08;;;;;;;14.43;2.47;;;;;;;13.13;46.37;102144.66;4920638;29;20031;-64
2023/10/16 01:48:40;;;;;;;2.33;2.10;;;;;;;13.16;46.12;102149.81;4921252;29;20040;-64
2023/10/16 01:51:06;;;;;;;3.92;2.08;;;;;;;13.16;45.70;102146.25;4920662;29;20514;-64
2023/10/16 01:53:36;;;;;;;2.45;1.70;;;;;;;13.16;46.10;102143.56;4904936;29;20051;-64
2023/10/16 01:56:12;;;;;;;9.20;2.78;;;;;;;13.16;46.88;102138.19;4921095;29;20046;-64
2023/10/16 01:58:44;;;;;;;6.00;2.65;;;;;;;13.13;46.59;102144.66;4922021;29;20036;-64
2023/10/16 02:01:20;;;;;;;3.47;2.57;;;;;;;13.15;46.81;102137.34;4920864;29;20040;-64
2023/10/16 02:03:49;;;;;;;3.13;2.42;;;;;;;13.15;46.55;102137.34;4936291;29;20122;-64
2023/10/16 02:06:15;;;;;;;5.85;2.30;;;;;;;13.13;46.60;102128.53;4920395;29;20036;-64
2023/10/16 02:08:44;;;;;;;5.28;2.63;;;;;;;13.09;46.07;102127.03;4904105;29;20055;-64
2023/10/16 02:11:10;;;;;;;6.10;2.38;;;;;;;13.11;45.65;102132.31;4904754;29;20110;-64
2023/10/16 02:13:40;;;;;;;4.38;2.10;;;;;;;13.06;46.52;102121.00;4936934;29;20052;-64
2023/10/16 02:16:09;;;;;;;3.55;2.80;;;;;;;13.08;45.57;102130.69;4920388;29;20023;-64
2023/10/16 02:18:40;;;;;;;4.82;2.30;;;;;;;13.04;46.68;102121.09;4904434;29;20574;-64
2023/10/16 02:21:11;;;;;;;3.15;1.98;;;;;;;13.06;45.66;102124.56;4904848;29;20035;-64
2023/10/16 02:23:46;;;;;;;6.80;2.97;;;;;;;13.05;45.68;102120.13;4935843;29;20063;-64
2023/10/16 02:26:12;;;;;;;4.90;2.58;;;;;;;13.04;46.17;102126.47;4937195;29;20043;-64
2023/10/16 02:28:40;;;;;;;6.15;2.80;;;;;;;13.05;46.15;102120.13;4936920;29;20403;-64
2023/10/16 02:31:14;;;;;;;5.57;2.92;;;;;;;13.04;46.50;102115.72;4905440;29;20111;-64
2023/10/16 02:33:45;;;;;;;13.95;3.33;;;;;;;13.07;47.04;102118.22;4904707;29;20047;-63
2023/10/16 02:36:12;;;;;;;6.32;3.10;;;;;;;13.04;45.84;102113.03;4937261;29;20036;-64
2023/10/16 02:38:37;;;;;;;7.95;2.30;;;;;;;13.03;46.24;102111.31;4908348;29;20077;-64
2023/10/16 02:41:03;;;;;;;3.33;2.90;;;;;;;13.02;46.90;102114.97;4924088;29;20043;-58
2023/10/16 02:43:29;;;;;;;4.32;3.10;;;;;;;13.01;46.80;102115.09;4908124;29;20036;-60
2023/10/16 02:45:56;;;;;;;5.65;3.05;;;;;;;12.99;46.31;102122.41;4921179;29;20508;-57
2023/10/16 02:48:22;;;;;;;5.40;2.60;;;;;;;12.96;46.44;102122.63;4903898;29;20040;-58
2023/10/16 02:50:56;;;;;;;3.35;2.80;;;;;;;12.95;46.38;102123.63;4935485;29;20036;-57
2023/10/16 02:53:24;;;;;;;4.22;2.90;;;;;;;12.92;45.96;102119.31;4935405;29;20082;-57
2023/10/16 02:55:57;;;;;;;3.88;2.60;;;;;;;12.91;45.98;102122.97;4936356;29;20066;-57
2023/10/16 02:58:24;;;;;;;5.85;2.67;;;;;;;12.90;45.60;102115.03;4920313;29;20071;-58
2023/10/16 03:00:55;;;;;;;7.40;2.97;;;;;;;12.89;46.15;102119.56;4904068;29;20063;-57
2023/10/16 03:03:26;;;;;;;4.72;2.72;;;;;;;12.90;46.41;102120.41;4904142;29;20031;-58
2023/10/16 03:05:52;;;;;;;5.30;3.10;;;;;;;12.89;46.89;102114.16;4919541;29;20496;-57
2023/10/16 03:08:20;;;;;;;3.95;2.92;;;;;;;12.90;46.52;102125.78;4919697;29;20036;-57
2023/10/16 03:10:46;;;;;;;9.57;3.17;;;;;;;12.89;46.19;102119.56;4919692;29;20146;-57
2023/10/16 03:13:15;;;;;;;6.00;2.72;;;;;;;12.89;45.90;102124.06;4903721;29;20059;-57
2023/10/16 03:15:48;;;;;;;4.55;2.97;;;;;;;12.89;46.95;102119.56;4919677;29;20102;-57
2023/10/16 03:18:17;;;;;;;3.08;2.60;;;;;;;12.90;46.86;102121.25;4903491;29;20063;-57
2023/10/16 03:20:44;;;;;;;7.78;3.28;;;;;;;12.90;46.40;102115.88;4919549;29;20075;-57
2023/10/16 03:23:12;;;;;;;6.38;3.00;;;;;;;12.91;46.43;102114.91;4918945;29;20533;-58
2023/10/16 03:28:10;;;;;;;5.95;2.72;;;;;;;12.90;46.77;102115.88;4919803;29;20578;-57
2023/10/16 03:30:39;;;;;;;5.05;3.10;;;;;;;12.89;46.74;102118.69;4918999;29;20040;-58
2023/10/16 03:33:05;;;;;;;5.63;2.65;;;;;;;12.88;46.49;102112.44;4919331;29;20043;-57
2023/10/16 03:35:30;;;;;;;4.03;2.50;;;;;;;12.87;46.80;102110.72;4902967;29;20066;-57
2023/10/16 03:37:56;;;;;;;7.38;3.03;;;;;;;12.86;46.63;102109.00;4935768;29;20545;-58
2023/10/16 03:40:24;;;;;;;4.43;3.50;;;;;;;12.85;46.34;102107.28;4918845;29;20044;-57
2023/10/16 03:42:54;;;;;;;10.07;2.90;;;;;;;12.85;46.86;102104.59;4934467;29;20040;-58
2023/10/16 03:45:23;;;;;;;5.25;2.67;;;;;;;12.79;46.60;102102.34;4934405;29;20035;-57
2023/10/16 03:47:52;;;;;;;4.57;2.78;;;;;;;12.80;46.32;102101.41;4934255;29;20392;-57
2023/10/16 03:50:25;;;;;;;2.95;2.30;;;;;;;12.77;45.95;102101.63;4916970;29;20134;-58
2023/10/16 03:52:54;;;;;;;5.35;3.55;;;;;;;12.75;45.85;102103.56;4935653;29;20479;-57
2023/10/16 03:55:43;;;;;;;4.97;2.53;;;;;;;12.73;46.88;102103.66;4903020;29;20035;-57
2023/10/16 03:58:10;;;;;;;8.07;3.22;;;;;;;12.74;46.23;102108.06;4907671;29;20381;-57
2023/10/16 04:03:22;;;;;;;2.28;1.95;;;;;;;12.68;46.01;102104.97;4920984;29;20406;-57
2023/10/16 04:05:48;;;;;;;4.78;2.90;;;;;;;12.62;45.79;102098.19;4918612;29;20395;-57
2023/10/16 04:08:16;;;;;;;5.30;2.88;;;;;;;12.60;46.41;102101.97;4918417;29;20036;-57
2023/10/16 04:10:46;;;;;;;3.35;2.00;;;;;;;12.59;45.99;102101.13;4918667;29;20043;-57
2023/10/16 04:13:14;;;;;;;2.55;1.88;;;;;;;12.56;46.11;102100.50;4934063;29;20534;-57
2023/10/16 04:18:18;;;;;;;3.78;2.60;;;;;;;12.51;46.06;102098.13;4934098;29;20044;-57
2023/10/16 04:20:44;;;;;;;4.55;2.92;;;;;;;12.50;46.88;102101.81;4919682;29;20043;-57
2023/10/16 04:23:29;;;;;;;4.60;2.38;;;;;;;12.48;46.84;102097.50;4918222;29;20063;-58
2023/10/16 04:29:22;;;;;;;5.50;2.80;;;;;;;12.46;46.86;102099.41;4919719;29;20412;-57
2023/10/16 04:37:29;;;;;;;6.15;3.55;;;;;;;12.50;46.68;102099.13;4921389;29;20092;-57
2023/10/16 04:45:25;;;;;;;4.13;2.65;;;;;;;12.46;45.89;102078.78;4921441;29;20055;-57
2023/10/16 04:55:53;;;;;;;3.33;2.78;;;;;;;12.47;46.23;102074.28;4917585;29;20126;-60
2023/10/16 05:11:36;;;;;;;4.57;3.05;;;;;;;12.38;46.74;102058.81;4920273;29;20463;-57
2023/10/16 05:22:03;;;;;;;10.95;3.58;;;;;;;12.36;46.33;102047.31;4927739;29;20043;-57
2023/10/16 06:14:09;;;;;;;9.95;3.55;;;;;;;12.58;46.88;102066.28;4937211;29;20061;-63
2023/10/16 06:16:35;;;;;;;10.10;3.97;;;;;;;12.60;46.47;102058.97;4935947;29;20123;-64
2023/10/16 06:19:07;;;;;;;7.72;4.38;;;;;;;12.60;46.58;102057.16;4935847;29;20134;-63
2023/10/16 06:21:33;;;;;;;7.93;4.22;;;;;;;12.61;46.72;102050.81;4937142;29;20040;-63
2023/10/16 06:23:59;;;;;;;8.85;4.38;;;;;;;12.65;46.77;102056.81;4936493;29;20028;-63
2023/10/16 06:26:27;;;;;;;17.67;6.00;;;;;;;12.68;47.51;102057.44;4936959;29;20032;-63
2023/10/16 06:28:52;;;;;;;8.18;4.88;;;;;;;12.69;47.63;102058.31;4920385;29;20123;-63
2023/10/16 06:31:25;;;;;;;12.05;5.40;;;;;;;12.71;46.88;102053.66;4935542;29;20122;-63
2023/10/16 06:33:58;;;;;;;12.80;5.05;;;;;;;12.77;46.34;102056.78;4916467;29;20412;-63
2023/10/16 06:36:24;;;;;;;9.52;4.47;;;;;;;12.80;46.88;102056.56;4886058;29;20413;-63
2023/10/16 06:38:51;;;;;;;10.45;4.18;;;;;;;12.84;46.37;102057.19;4918406;29;20040;-62
2023/10/16 06:41:20;;;;;;;8.05;4.47;;;;;;;12.87;46.44;102056.94;4918250;29;20036;-63
2023/10/16 06:43:47;;;;;;;13.82;4.53;;;;;;;12.91;47.63;102060.25;4918540;29;20028;-62
2023/10/16 06:46:22;;;;;;;11.77;5.85;;;;;;;12.93;46.55;102056.47;4917961;29;20036;-62
2023/10/16 06:48:48;;;;;;;10.98;4.75;;;;;;;12.97;47.61;102060.69;4900596;29;20504;-62
2023/10/16 06:51:15;;;;;;;10.77;5.82;;;;;;;13.01;46.39;102064.00;4900542;29;20100;-62
2023/10/16 06:53:42;;;;;;;20.63;5.57;;;;;;;13.05;46.38;102066.34;4917388;29;20123;-62
2023/10/16 06:56:08;;;;;;;12.00;5.25;;;;;;;13.10;46.58;102068.69;4900335;29;20032;-62
2023/10/16 06:58:36;;;;;;;14.32;5.13;;;;;;;13.13;46.52;102063.97;4900433;29;20360;-62
2023/10/16 07:01:03;;;;;;;15.55;5.47;;;;;;;13.20;46.95;102065.22;4900268;29;20095;-63
2023/10/16 07:03:28;;;;;;;12.20;5.55;;;;;;;13.25;46.91;102067.56;4919359;29;20519;-63
2023/10/16 07:05:54;;;;;;;16.02;6.15;;;;;;;13.33;47.84;102066.00;4934742;29;20032;-62
2023/10/16 07:08:20;;;;;;;11.15;5.10;;;;;;;13.39;46.85;102062.84;4918841;29;20062;-62
2023/10/16 07:10:50;;;;;;;10.73;5.30;;;;;;;13.48;46.52;102057.75;4919168;29;20058;-63
2023/10/16 07:13:26;;;;;;;10.90;4.47;;;;;;;13.54;47.46;102060.78;4902882;29;20087;-64
2023/10/16 07:15:53;;;;;;;13.30;6.32;;;;;;;13.67;46.39;102063.41;4918915;29;20024;-62
2023/10/16 07:18:24;;;;;;;15.77;5.75;;;;;;;13.76;47.87;102070.78;4919010;29;20031;-63
2023/10/16 07:20:59;;;;;;;13.93;5.75;;;;;;;13.85;47.22;102062.84;4936094;29;20031;-58
2023/10/16 07:23:37;;;;;;;15.07;6.65;;;;;;;13.97;47.23;102059.19;4920083;29;20038;-57
2023/10/16 07:26:04;;;;;;;12.60;6.28;;;;;;;14.07;47.20;102059.31;4920159;29;20036;-57
2023/10/16 07:28:32;;;;;;;9.93;5.38;;;;;;;14.21;45.90;102056.38;4934967;29;20083;-58
2023/10/16 07:30:59;;;;;;;9.23;4.65;;;;;;;14.31;46.03;102053.81;4920125;29;20035;-59
2023/10/16 07:33:25;;;;;;;7.82;4.40;;;;;;;14.37;46.49;102054.22;4934850;29;20113;-57
2023/10/16 07:35:52;;;;;;;9.43;4.47;;;;;;;14.53;45.76;102062.78;4917979;29;20183;-57
2023/10/16 07:38:21;;;;;;;14.07;5.00;;;;;;;14.72;46.90;102054.03;4934913;29;20551;-56
2023/10/16 07:40:54;;;;;;;9.18;4.35;;;;;;;14.89;45.69;102056.19;4934554;29;20044;-57
2023/10/16 07:43:26;;;;;;;10.18;4.95;;;;;;;15.04;47.26;102057.63;4918764;29;20117;-57
2023/10/16 07:48:51;;;;;;;13.48;6.13;;;;;;;15.35;45.42;102064.00;4919370;29;20040;-57
2023/10/16 07:51:25;;;;;;;12.35;5.20;;;;;;;15.53;46.48;102062.47;4935591;29;20082;-58
2023/10/16 07:53:51;;;;;;;10.18;5.32;;;;;;;15.78;46.55;102060.34;4919491;29;20063;-58
2023/10/16 07:56:19;;;;;;;15.77;6.63;;;;;;;15.98;45.88;102057.66;4935503;29;20503;-57
2023/10/16 07:58:48;;;;;;;14.40;5.28;;;;;;;16.15;45.96;102058.88;4918578;29;20165;-58
2023/10/16 08:03:45;;;;;;;9.35;5.15;;;;;;;16.44;45.53;102054.44;4920386;29;20038;-63
2023/10/16 08:06:17;;;;;;;8.98;5.05;;;;;;;16.43;45.80;102050.03;4920833;29;20043;-57
2023/10/16 08:08:48;;;;;;;14.82;5.72;;;;;;;16.60;44.61;102054.81;4919200;29;20032;-57
2023/10/16 08:11:19;;;;;;;10.82;5.28;;;;;;;16.81;44.44;102062.81;4918798;29;20040;-58
2023/10/16 08:13:51;;;;;;;10.85;4.68;;;;;;;17.04;45.71;102058.03;4918391;29;20549;-57
2023/10/16 08:16:21;;;;;;;12.68;5.30;;;;;;;17.30;45.66;102056.47;4935535;29;20038;-58
2023/10/16 08:18:47;;;;;;;10.85;4.95;;;;;;;17.43;45.46;102057.03;4918485;29;20082;-57
2023/10/16 08:21:23;;;;;;;11.48;5.38;;;;;;;17.54;45.43;102062.34;4902356;29;20510;-58
2023/10/16 08:23:53;;;;;;;11.40;4.10;;;;;;;17.66;44.77;102057.63;4915020;29;20567;-58
2023/10/16 08:26:28;;;;;;;12.23;4.70;;;;;;;17.93;44.98;102053.13;4899137;29;20124;-58
2023/10/16 08:31:41;;;;;;;12.90;4.78;;;;;;;18.40;44.73;102055.81;4915967;29;20091;-58
2023/10/16 08:34:08;;;;;;;12.68;4.68;;;;;;;18.81;44.38;102054.50;4914669;29;20040;-57
2023/10/16 08:36:33;;;;;;;7.25;4.45;;;;;;;19.03;44.14;102049.47;4898982;29;20043;-58
2023/10/16 08:39:08;;;;;;;10.48;4.30;;;;;;;19.16;43.50;102049.94;4914975;29;20033;-57
2023/10/16 08:41:42;;;;;;;11.90;4.28;;;;;;;19.35;43.60;102053.50;4914944;29;20127;-57
2023/10/16 08:44:15;;;;;;;11.45;4.53;;;;;;;19.71;43.44;102044.31;4916280;29;20028;-58
2023/10/16 08:47:46;;;;;;;7.95;3.67;;;;;;;20.02;43.12;102048.28;4917502;29;20126;-58
2023/10/16 08:49:39;;;;;;;11.63;3.90;;;;;;;20.40;43.07;102043.41;4914810;29;20071;-58
2023/10/16 08:52:20;;;;;;;7.85;4.00;;;;;;;20.71;43.38;102045.44;4918729;29;20369;-58
2023/10/16 08:55:00;;;;;;;9.15;4.15;;;;;;;21.02;42.60;102053.81;4919418;29;20048;-59
2023/10/16 08:57:26;;;;;;;8.35;3.75;;;;;;;21.19;43.29;102050.13;4919589;29;20083;-58
2023/10/16 08:59:52;;;;;;;7.60;4.05;;;;;;;21.45;42.54;102045.41;4902741;29;20028;-58
2023/10/16 09:02:19;;;;;;;9.95;4.30;;;;;;;21.75;42.75;102040.25;4918757;29;20444;-59
2023/10/16 09:04:45;;;;;;;5.53;3.58;;;;;;;22.02;42.37;102037.19;4918447;29;20115;-59
2023/10/16 09:07:11;;;;;;;10.43;4.65;;;;;;;22.11;41.49;102038.03;4912414;29;20044;-59
2023/10/16 09:09:41;;;;;;;8.50;4.05;;;;;;;22.36;41.74;102036.91;4925617;29;20032;-58
2023/10/16 09:12:10;;;;;;;5.10;3.63;;;;;;;22.77;41.11;102029.41;4938718;29;20040;-58
2023/10/16 09:14:39;;;;;;;5.18;3.33;;;;;;;23.49;40.67;102020.72;4929818;29;20044;-60
2023/10/16 09:17:06;;;;;;;10.68;3.90;;;;;;;25.50;37.29;102019.19;4902911;29;20032;-60
2023/10/16 09:19:35;;;;;;;11.60;3.70;;;;;;;25.70;37.61;102022.13;4919092;29;20036;-59
2023/10/16 09:22:04;;;;;;;8.50;3.90;;;;;;;25.54;37.76;102023.25;4919277;29;20480;-60
2023/10/16 09:24:33;;;;;;;8.32;3.53;;;;;;;25.58;38.73;102030.03;4920982;29;20048;-60
2023/10/16 09:27:13;;;;;;;4.85;3.25;;;;;;;25.65;38.00;102022.72;4921120;29;20023;-60
2023/10/16 09:29:44;;;;;;;7.53;3.88;;;;;;;25.53;38.63;102032.53;4920965;29;20040;-60
2023/10/16 09:32:10;;;;;;;13.35;4.40;;;;;;;25.80;37.91;102039.94;4920936;29;20035;-59
2023/10/16 09:34:36;;;;;;;7.50;3.88;;;;;;;25.89;38.17;102022.25;4905060;29;20043;-59
2023/10/16 09:37:16;;;;;;;6.93;3.30;;;;;;;26.07;37.86;102030.00;4938305;29;20499;-60
2023/10/16 09:39:46;;;;;;;4.85;2.85;;;;;;;26.47;37.42;102022.84;4938174;29;20110;-60
2023/10/16 09:42:12;;;;;;;9.20;3.97;;;;;;;26.81;37.06;102030.19;4938330;29;20028;-60
2023/10/16 09:44:44;;;;;;;4.90;3.20;;;;;;;27.18;36.34;102019.53;4936842;29;20042;-60
2023/10/16 09:47:30;;;;;;;6.00;3.85;;;;;;;27.28;36.94;102012.72;4921640;29;20031;-60
2023/10/16 09:50:01;;;;;;;7.78;3.83;;;;;;;27.40;36.87;102019.31;4923446;29;20161;-60
2023/10/16 09:52:31;;;;;;;10.05;3.08;;;;;;;27.28;35.72;102013.59;4937883;29;20031;-60
2023/10/16 09:54:56;;;;;;;11.63;3.03;;;;;;;27.35;35.94;102014.47;4937698;29;20036;-60
2023/10/16 09:57:27;;;;;;;6.50;2.85;;;;;;;27.45;35.91;102014.06;4936603;29;20032;-60
2023/10/16 10:00:00;;;;;;;7.80;3.47;;;;;;;27.58;34.86;102022.34;4937470;29;20039;-60
2023/10/16 10:02:26;;;;;;;7.60;3.22;;;;;;;27.62;35.50;102018.09;4938079;29;20123;-62
2023/10/16 10:05:08;;;;;;;3.50;2.30;;;;;;;27.53;34.91;102022.09;4920680;29;20118;-60
2023/10/16 10:07:34;;;;;;;6.15;1.98;;;;;;;27.51;35.05;102021.47;4904998;29;20506;-61
2023/10/16 10:10:39;;;;;;;5.32;3.05;;;;;;;27.48;34.67;102022.75;4917069;29;20044;-59
2023/10/16 10:13:15;;;;;;;5.82;2.85;;;;;;;27.44;34.41;102006.88;4904101;29;20040;-59
2023/10/16 10:15:45;;;;;;;7.30;2.53;;;;;;;27.28;35.10;102015.50;4902794;29;20087;-59
2023/10/16 10:21:18;;;;;;;3.17;2.58;;;;;;;27.24;34.48;102005.97;4874534;29;20134;-59
2023/10/16 10:23:48;;;;;;;6.60;3.17;;;;;;;27.23;34.22;102004.28;4918083;29;20141;-59
2023/10/16 10:26:20;;;;;;;4.88;3.10;;;;;;;27.31;33.92;102013.16;4901019;29;20043;-60
2023/10/16 10:32:12;;;;;;;5.43;2.10;;;;;;;27.81;33.99;102008.97;4917644;29;20051;-60
2023/10/16 10:34:38;;;;;;;5.28;2.63;;;;;;;28.02;33.54;102000.47;4900927;29;20040;-60
2023/10/16 10:37:44;;;;;;;6.30;3.08;;;;;;;28.30;33.89;101992.78;4900748;29;20032;-60
2023/10/16 10:40:18;;;;;;;8.02;3.17;;;;;;;28.43;33.32;101991.03;4916449;29;20040;-59
2023/10/16 10:51:16;;;;;;;7.65;2.33;;;;;;;28.67;32.10;101979.31;5275107;23;20475;-61
2023/10/16 10:53:52;;;;;;;5.65;1.90;;;;;;;28.75;32.89;101979.03;4955941;29;20034;-60
2023/10/16 10:56:20;;;;;;;3.25;1.58;;;;;;;28.87;31.76;101972.59;4918607;29;20095;-60
2023/10/16 10:58:46;;;;;;;3.42;0.90;;;;;;;29.00;31.70;101974.44;4955033;29;20062;-60
2023/10/16 11:01:26;;;;;;;3.95;1.80;;;;;;;29.08;31.52;101970.53;4922261;29;20055;-60
2023/10/16 11:03:53;;;;;;;3.60;1.90;;;;;;;29.02;31.44;101974.19;4954968;29;20031;-60
2023/10/16 11:06:20;;;;;;;3.15;1.10;;;;;;;28.89;31.20;101966.88;4938232;29;20098;-59
2023/10/16 11:08:47;;;;;;;5.28;2.03;;;;;;;28.79;31.26;101964.56;4955367;29;20045;-60
2023/10/16 11:11:14;;;;;;;2.63;1.30;;;;;;;28.73;31.31;101959.09;4954857;28;20492;-61
2023/10/16 11:13:46;;;;;;;3.33;1.60;;;;;;;28.76;31.05;101953.97;4937833;29;20023;-59
2023/10/16 11:16:11;;;;;;;;;;;;;;;28.84;31.87;101952.84;4938193;29;20114;-59
2023/10/16 11:18:37;;;;;;;7.80;2.73;;;;;;;28.82;32.02;101952.25;4938142;29;20022;-59
2023/10/16 11:21:04;;;;;;;7.03;2.13;;;;;;;28.81;31.16;101945.88;4955172;29;20269;-59
2023/10/16 11:23:33;;;;;;;5.07;2.40;;;;;;;28.80;31.92;101948.88;4938139;29;20094;-59
2023/10/16 11:25:59;;;;;;;2.08;1.23;;;;;;;28.68;31.57;101940.44;4938535;29;20376;-61
2023/10/16 11:28:37;;;;;;;6.53;2.60;;;;;;;28.55;31.58;101943.25;4955192;29;20548;-59
2023/10/16 11:31:09;;;;;;;6.55;1.80;;;;;;;28.43;31.97;101947.75;4955243;29;20042;-60
2023/10/16 11:33:44;;;;;;;5.78;1.88;;;;;;;28.31;31.92;101949.50;4955367;29;20123;-60
2023/10/16 11:36:13;;;;;;;4.07;1.90;;;;;;;28.18;31.48;101947.66;4939327;29;20035;-59
2023/10/16 11:38:39;;;;;;;4.13;1.70;;;;;;;28.00;32.26;101946.66;4938138;29;20042;-60
2023/10/16 11:41:05;;;;;;;5.97;1.60;;;;;;;27.76;31.79;101928.88;4954794;29;20028;-59
2023/10/16 11:43:33;;;;;;;2.30;1.35;;;;;;;27.58;31.59;101931.47;4954936;29;20035;-59
2023/10/16 11:46:05;;;;;;;5.43;1.58;;;;;;;27.38;32.24;101925.97;4954846;29;20035;-59
2023/10/16 11:51:18;;;;;;;4.78;1.10;;;;;;;26.97;31.89;101930.78;4961971;28;20623;-59
2023/10/16 11:53:44;;;;;;;6.30;1.35;;;;;;;26.81;31.74;101928.44;4943404;28;20034;-59
2023/10/16 11:56:12;;;;;;;3.38;1.20;;;;;;;26.66;31.96;101925.88;4956371;28;20034;-59
2023/10/16 11:58:41;;;;;;;4.45;1.17;;;;;;;26.53;32.68;101923.06;4956612;28;20075;-59
2023/10/16 12:01:09;;;;;;;1.88;0.95;;;;;;;26.41;32.30;101916.50;4974147;28;20102;-59
2023/10/16 12:03:39;;;;;;;5.22;1.30;;;;;;;26.26;32.51;101902.06;4974064;28;20027;-59
2023/10/16 12:06:09;;;;;;;5.00;1.30;;;;;;;26.16;32.00;101912.59;4940753;28;20038;-59
2023/10/16 12:08:36;;;;;;;5.10;1.52;;;;;;;26.05;32.31;101911.22;4956940;28;20057;-59
2023/10/16 12:11:03;;;;;;;4.45;1.13;;;;;;;25.93;32.94;101902.75;4956521;28;20034;-59
2023/10/16 12:13:28;;;;;;;3.58;1.70;;;;;;;25.84;32.71;101914.09;4956559;28;20073;-59
2023/10/16 12:15:53;;;;;;;6.35;1.60;;;;;;;25.75;32.48;101901.56;4973707;28;20117;-59
2023/10/16 12:18:21;;;;;;;7.32;1.42;;;;;;;25.64;32.37;101900.25;4973508;28;20043;-59
2023/10/16 12:20:46;;;;;;;5.60;1.70;;;;;;;25.54;32.63;101908.00;4974176;28;20035;-59
2023/10/16 12:23:11;;;;;;;4.22;1.77;;;;;;;25.44;32.92;101902.81;4962619;28;20502;-59
2023/10/16 12:25:37;;;;;;;5.40;1.55;;;;;;;25.33;33.18;101902.50;4962796;28;20058;-59
2023/10/16 12:28:07;;;;;;;3.70;1.58;;;;;;;25.22;32.96;101905.81;4962507;28;20504;-58
2023/10/16 12:30:32;;;;;;;3.28;1.88;;;;;;;25.13;33.55;101904.25;4963331;28;20562;-58
2023/10/16 12:32:59;;;;;;;4.32;1.73;;;;;;;25.06;33.14;101889.66;4946659;28;20035;-58
2023/10/16 12:35:26;;;;;;;7.75;2.22;;;;;;;25.03;33.49;101898.25;4962396;28;20042;-58
2023/10/16 12:37:55;;;;;;;9.05;2.22;;;;;;;24.99;33.76;101897.78;4962990;28;20034;-58
2023/10/16 12:40:24;;;;;;;5.30;1.70;;;;;;;24.99;33.54;101891.47;4963282;28;20038;-59
2023/10/16 12:42:58;;;;;;;5.43;2.00;;;;;;;24.97;33.91;101897.16;4962906;28;20026;-58
2023/10/16 12:45:23;;;;;;;12.45;3.33;;;;;;;24.97;33.70;101899.03;4962055;28;20065;-59
2023/10/16 12:47:52;;;;;;;3.70;2.58;;;;;;;24.91;33.44;101889.72;4946370;28;20463;-59
2023/10/16 12:50:23;;;;;;;5.60;1.67;;;;;;;24.85;33.95;101883.13;4956400;28;20086;-60
2023/10/16 12:52:50;;;;;;;3.97;1.52;;;;;;;24.88;33.74;101881.88;4940217;29;20098;-58
2023/10/16 12:55:16;;;;;;;3.17;1.75;;;;;;;24.80;33.61;101882.88;4959237;28;20031;-58
2023/10/16 12:57:43;;;;;;;3.47;1.42;;;;;;;24.71;33.69;101881.28;4924248;29;20034;-59
2023/10/16 13:00:20;;;;;;;5.60;1.60;;;;;;;24.67;33.79;101874.50;4941265;29;20024;-58
2023/10/16 13:02:46;;;;;;;4.03;1.10;;;;;;;24.63;33.98;101875.91;4940095;28;20031;-59
2023/10/16 13:05:13;;;;;;;3.20;1.08;;;;;;;24.58;33.69;101867.44;4925263;29;20024;-58
2023/10/16 13:07:47;;;;;;;2.53;1.02;;;;;;;24.53;34.05;101872.66;4940242;29;20051;-59
2023/10/16 13:10:25;;;;;;;5.55;1.35;;;;;;;24.42;33.78;101867.69;4941578;29;20431;-59
2023/10/16 13:12:51;;;;;;;3.65;1.52;;;;;;;24.37;33.89;101864.72;4925566;29;20404;-59
2023/10/16 13:15:24;;;;;;;3.20;1.20;;;;;;;24.31;33.51;101866.31;4958717;29;20063;-59
2023/10/16 13:17:50;;;;;;;3.80;1.70;;;;;;;24.27;33.92;101869.63;4960393;29;20062;-59
2023/10/16 13:20:18;;;;;;;1.80;1.30;;;;;;;24.26;34.46;101862.47;4942078;29;20028;-59
2023/10/16 13:22:52;;;;;;;4.68;2.15;;;;;;;24.24;34.33;101853.59;4960633;29;20059;-59
2023/10/16 13:25:22;;;;;;;6.47;1.70;;;;;;;24.27;33.97;101858.66;4962666;29;20031;-59
2023/10/16 13:27:47;;;;;;;3.45;1.50;;;;;;;24.19;34.39;101864.28;4943792;29;20027;-58
2023/10/16 13:30:16;;;;;;;5.45;1.63;;;;;;;24.07;34.08;101858.41;4944506;29;20027;-58
2023/10/16 13:32:42;;;;;;;2.10;1.00;;;;;;;24.05;34.68;101856.91;4961596;28;20035;-59
2023/10/16 13:35:16;;;;;;;3.28;1.40;;;;;;;23.97;34.29;101857.03;4957437;29;20525;-59
2023/10/16 13:37:58;;;;;;;3.78;1.38;;;;;;;23.85;34.53;101853.06;4936782;29;20514;-59
2023/10/16 13:40:27;;;;;;;4.47;1.33;;;;;;;23.68;34.46;101853.28;4939887;29;20043;-58
2023/10/16 13:43:00;;;;;;;5.25;1.42;;;;;;;23.59;34.69;101845.38;4957018;29;20277;-58